• Join FlightAware (Why Join?)
  • Login
  • US Flag 
05:12PM EST


 

Airport Tracker/Info


-or-


 

Live Flight TrackerFlight Track Log ✈ KAP2826 ✈ 02-May-2013 ✈ KBOS - KACK

Flight Track Log - Related Links

Times and Time Zones

All times are in EDT time to prevent confusion due to time zone crossing. See the KAP2826 flight status page for this flight to view local times or setup timezone preferences in your user account.

Time Position Orientation Groundspeed Altitude Reporting Facility
EDT Latitude Longitude Course Direction KTS MPH feet Rate Location/Type
02:43PM 42.3667 -70.9833 124° Southeast 113 130 500  Level KA90
02:44PM 42.3500 -70.9500 124° Southeast 113 130 1,000 420 Climbing KA90
02:45PM 42.3333 -70.9167 124° Southeast 117 135 1,400 480 Climbing KA90
02:46PM 42.3167 -70.8667 114° Southeast 128 147 2,100 540 Climbing KA90
02:47PM 42.2833 -70.8500 160° South 131 151 2,500 420 Climbing KA90
02:48PM 42.2500 -70.8167 143° Southeast 140 161 3,000 180 Climbing KA90
02:49PM 42.2167 -70.7833 143° Southeast 159 183 3,000  Level KA90
02:50PM 42.1833 -70.7667 160° South 169 194 3,000  Level KA90
02:51PM 42.1333 -70.7333 154° Southeast 170 196 3,000  Level KA90
02:52PM 42.0833 -70.7000 154° Southeast 169 194 3,000  Level KA90
02:53PM 42.0500 -70.6667 143° Southeast 167 192 3,000  Level KA90
02:54PM 42.0167 -70.6333 143° Southeast 170 196 3,000  Level KA90
02:56PM 41.9914 -70.6141 151° Southeast  Level Estimated
03:03PM 41.8327 -70.4938 151° Southeast  Level Estimated
03:04PM 41.8100 -70.4767 151° Southeast  Level Estimated
03:05PM 41.7873 -70.4596 151° Southeast  Level Estimated
03:06PM 41.7647 -70.4425 151° Southeast  Level Estimated
03:07PM 41.7420 -70.4254 151° Southeast  Level Estimated
03:08PM 41.7193 -70.4083 151° Southeast  Level Estimated
03:09PM 41.6966 -70.3912 151° Southeast  Level Estimated
03:10PM 41.6739 -70.3742 151° Southeast  Level Estimated
03:11PM 41.6512 -70.3571 151° Southeast  Level Estimated
03:12PM 41.6285 -70.3401 151° Southeast  Level Estimated
03:13PM 41.6058 -70.3231 151° Southeast  Level Estimated
03:14PM 41.5831 -70.3060 151° Southeast  Level Estimated
03:15PM 41.5604 -70.2890 151° Southeast  Level Estimated
03:16PM 41.5377 -70.2720 151° Southeast  Level Estimated
03:17PM 41.5150 -70.2551 151° Southeast  Level Estimated
03:18PM 41.4923 -70.2381 151° Southeast  Level Estimated
03:19PM 41.4696 -70.2212 151° Southeast  Level Estimated
03:20PM 41.4469 -70.2042 151° Southeast  Level Estimated
03:21PM 41.4241 -70.1873 151° Southeast  Level Estimated